sensor_id;sensor_type;location;lat;lon;timestamp;temperature;humidity
6270;DHT22;3168;51.684;6.954;2023-02-08T00:02:16;-2.70;1.00
6270;DHT22;3168;51.684;6.954;2023-02-08T00:04:42;-2.70;1.00
6270;DHT22;3168;51.684;6.954;2023-02-08T00:07:08;-2.70;1.00
6270;DHT22;3168;51.684;6.954;2023-02-08T00:09:34;-2.50;1.00
6270;DHT22;3168;51.684;6.954;2023-02-08T00:12:00;-2.70;1.00
6270;DHT22;3168;51.684;6.954;2023-02-08T00:14:26;-2.70;1.00
6270;DHT22;3168;51.684;6.954;2023-02-08T00:16:52;-2.70;1.00
6270;DHT22;3168;51.684;6.954;2023-02-08T00:19:19;-2.70;1.00
6270;DHT22;3168;51.684;6.954;2023-02-08T00:21:45;-2.80;1.00
6270;DHT22;3168;51.684;6.954;2023-02-08T00:24:11;-2.70;1.00
6270;DHT22;3168;51.684;6.954;2023-02-08T00:26:37;-2.80;1.00
6270;DHT22;3168;51.684;6.954;2023-02-08T00:29:02;-2.80;1.00
6270;DHT22;3168;51.684;6.954;2023-02-08T00:31:28;-2.70;1.00
6270;DHT22;3168;51.684;6.954;2023-02-08T00:33:54;-2.90;1.00
6270;DHT22;3168;51.684;6.954;2023-02-08T00:36:20;-2.80;1.00
6270;DHT22;3168;51.684;6.954;2023-02-08T00:38:46;-2.80;1.00
6270;DHT22;3168;51.684;6.954;2023-02-08T00:41:11;-2.80;1.00
6270;DHT22;3168;51.684;6.954;2023-02-08T00:43:37;-2.80;1.00
6270;DHT22;3168;51.684;6.954;2023-02-08T00:46:03;-2.90;1.00
6270;DHT22;3168;51.684;6.954;2023-02-08T00:48:29;-2.90;1.00
6270;DHT22;3168;51.684;6.954;2023-02-08T00:50:59;-2.80;1.00
6270;DHT22;3168;51.684;6.954;2023-02-08T00:53:24;-2.90;1.00
6270;DHT22;3168;51.684;6.954;2023-02-08T00:55:51;-2.80;1.00
6270;DHT22;3168;51.684;6.954;2023-02-08T00:58:16;-2.90;1.00
6270;DHT22;3168;51.684;6.954;2023-02-08T01:00:42;-2.70;1.00
6270;DHT22;3168;51.684;6.954;2023-02-08T01:03:08;-2.90;1.00
6270;DHT22;3168;51.684;6.954;2023-02-08T01:05:36;-2.90;1.00
6270;DHT22;3168;51.684;6.954;2023-02-08T01:08:00;-2.90;1.00
6270;DHT22;3168;51.684;6.954;2023-02-08T01:10:25;-2.80;1.00
6270;DHT22;3168;51.684;6.954;2023-02-08T01:12:51;-2.90;1.00
6270;DHT22;3168;51.684;6.954;2023-02-08T01:15:17;-2.90;1.00
6270;DHT22;3168;51.684;6.954;2023-02-08T01:17:43;-2.90;1.00
6270;DHT22;3168;51.684;6.954;2023-02-08T01:20:09;-2.90;1.00
6270;DHT22;3168;51.684;6.954;2023-02-08T01:22:35;-2.90;1.00
6270;DHT22;3168;51.684;6.954;2023-02-08T01:25:02;-2.90;1.00
6270;DHT22;3168;51.684;6.954;2023-02-08T01:27:28;-3.10;1.00
6270;DHT22;3168;51.684;6.954;2023-02-08T01:29:54;-2.90;1.00
6270;DHT22;3168;51.684;6.954;2023-02-08T01:32:20;-3.00;1.00
6270;DHT22;3168;51.684;6.954;2023-02-08T01:34:45;-3.00;1.00
6270;DHT22;3168;51.684;6.954;2023-02-08T01:37:11;-2.90;1.00
6270;DHT22;3168;51.684;6.954;2023-02-08T01:39:37;-2.90;1.00
6270;DHT22;3168;51.684;6.954;2023-02-08T01:42:03;-3.00;1.00
6270;DHT22;3168;51.684;6.954;2023-02-08T01:47:07;-3.10;1.00
6270;DHT22;3168;51.684;6.954;2023-02-08T01:49:33;-3.00;1.00
6270;DHT22;3168;51.684;6.954;2023-02-08T01:52:02;-3.00;1.00
6270;DHT22;3168;51.684;6.954;2023-02-08T01:54:26;-3.00;1.00
6270;DHT22;3168;51.684;6.954;2023-02-08T01:56:51;-3.00;1.00
6270;DHT22;3168;51.684;6.954;2023-02-08T01:59:20;-3.00;1.00
6270;DHT22;3168;51.684;6.954;2023-02-08T02:01:44;-3.00;1.00
6270;DHT22;3168;51.684;6.954;2023-02-08T02:04:10;-3.00;1.00
6270;DHT22;3168;51.684;6.954;2023-02-08T02:06:37;-3.10;1.00
6270;DHT22;3168;51.684;6.954;2023-02-08T02:09:16;-3.00;1.00
6270;DHT22;3168;51.684;6.954;2023-02-08T02:11:41;-3.10;1.00
6270;DHT22;3168;51.684;6.954;2023-02-08T02:14:07;-3.20;1.00
6270;DHT22;3168;51.684;6.954;2023-02-08T02:16:33;-3.20;1.00
6270;DHT22;3168;51.684;6.954;2023-02-08T02:18:59;-3.10;1.00
6270;DHT22;3168;51.684;6.954;2023-02-08T02:24:29;-3.30;1.00
6270;DHT22;3168;51.684;6.954;2023-02-08T02:30:03;-3.20;1.00
6270;DHT22;3168;51.684;6.954;2023-02-08T02:35:27;-3.20;1.00
6270;DHT22;3168;51.684;6.954;2023-02-08T02:38:35;-3.30;1.00
6270;DHT22;3168;51.684;6.954;2023-02-08T02:40:48;-3.20;1.00
6270;DHT22;3168;51.684;6.954;2023-02-08T02:43:19;-3.30;1.00
6270;DHT22;3168;51.684;6.954;2023-02-08T02:46:39;-3.40;1.00
6270;DHT22;3168;51.684;6.954;2023-02-08T02:51:47;-3.40;1.00
6270;DHT22;3168;51.684;6.954;2023-02-08T02:54:16;-3.30;1.00
6270;DHT22;3168;51.684;6.954;2023-02-08T02:56:43;-3.40;1.00
6270;DHT22;3168;51.684;6.954;2023-02-08T02:59:08;-3.30;1.00
6270;DHT22;3168;51.684;6.954;2023-02-08T03:01:34;-3.30;1.00
6270;DHT22;3168;51.684;6.954;2023-02-08T03:03:59;-3.40;1.00
6270;DHT22;3168;51.684;6.954;2023-02-08T03:06:37;-3.40;1.00
6270;DHT22;3168;51.684;6.954;2023-02-08T03:11:35;-3.40;1.00
6270;DHT22;3168;51.684;6.954;2023-02-08T03:16:44;-3.40;1.00
6270;DHT22;3168;51.684;6.954;2023-02-08T03:19:26;-3.50;1.00
6270;DHT22;3168;51.684;6.954;2023-02-08T03:21:59;-3.40;1.00
6270;DHT22;3168;51.684;6.954;2023-02-08T03:24:48;-3.40;1.00
6270;DHT22;3168;51.684;6.954;2023-02-08T03:27:16;-3.40;1.00
6270;DHT22;3168;51.684;6.954;2023-02-08T03:29:46;-3.40;1.00
6270;DHT22;3168;51.684;6.954;2023-02-08T03:32:12;-3.40;1.00
6270;DHT22;3168;51.684;6.954;2023-02-08T03:34:44;-3.40;1.00
6270;DHT22;3168;51.684;6.954;2023-02-08T03:37:11;-3.40;1.00
6270;DHT22;3168;51.684;6.954;2023-02-08T03:39:35;-3.50;1.00
6270;DHT22;3168;51.684;6.954;2023-02-08T03:42:03;-3.50;1.00
6270;DHT22;3168;51.684;6.954;2023-02-08T03:44:31;-3.50;1.00
6270;DHT22;3168;51.684;6.954;2023-02-08T03:46:55;-3.60;1.00
6270;DHT22;3168;51.684;6.954;2023-02-08T03:49:21;-3.60;1.00
6270;DHT22;3168;51.684;6.954;2023-02-08T03:51:45;-3.70;1.00
6270;DHT22;3168;51.684;6.954;2023-02-08T03:54:13;-3.60;1.00
6270;DHT22;3168;51.684;6.954;2023-02-08T03:56:55;-3.70;1.00
6270;DHT22;3168;51.684;6.954;2023-02-08T03:59:22;-3.70;1.00
6270;DHT22;3168;51.684;6.954;2023-02-08T04:01:47;-3.70;1.00
6270;DHT22;3168;51.684;6.954;2023-02-08T04:04:12;-3.70;1.00
6270;DHT22;3168;51.684;6.954;2023-02-08T04:06:38;-3.80;1.00
6270;DHT22;3168;51.684;6.954;2023-02-08T04:09:03;-3.70;1.00
6270;DHT22;3168;51.684;6.954;2023-02-08T04:11:29;-3.80;1.00
6270;DHT22;3168;51.684;6.954;2023-02-08T04:13:55;-3.80;1.00
6270;DHT22;3168;51.684;6.954;2023-02-08T04:16:21;-3.90;1.00
6270;DHT22;3168;51.684;6.954;2023-02-08T04:18:47;-3.90;1.00
6270;DHT22;3168;51.684;6.954;2023-02-08T04:21:13;-3.90;1.00
6270;DHT22;3168;51.684;6.954;2023-02-08T04:23:38;-4.00;1.00
6270;DHT22;3168;51.684;6.954;2023-02-08T04:26:04;-3.90;1.00
6270;DHT22;3168;51.684;6.954;2023-02-08T04:28:30;-3.90;1.00
6270;DHT22;3168;51.684;6.954;2023-02-08T04:30:56;-3.90;1.00
6270;DHT22;3168;51.684;6.954;2023-02-08T04:33:22;-3.90;1.00
6270;DHT22;3168;51.684;6.954;2023-02-08T04:35:48;-4.00;1.00
6270;DHT22;3168;51.684;6.954;2023-02-08T04:38:14;-3.90;1.00
6270;DHT22;3168;51.684;6.954;2023-02-08T04:40:40;-3.90;1.00
6270;DHT22;3168;51.684;6.954;2023-02-08T04:43:06;-3.90;1.00
6270;DHT22;3168;51.684;6.954;2023-02-08T04:45:31;-3.80;1.00
6270;DHT22;3168;51.684;6.954;2023-02-08T04:47:59;-3.90;1.00
6270;DHT22;3168;51.684;6.954;2023-02-08T04:50:23;-3.80;1.00
6270;DHT22;3168;51.684;6.954;2023-02-08T04:52:49;-3.90;1.00
6270;DHT22;3168;51.684;6.954;2023-02-08T04:55:15;-3.90;1.00
6270;DHT22;3168;51.684;6.954;2023-02-08T04:57:41;-3.90;1.00
6270;DHT22;3168;51.684;6.954;2023-02-08T05:00:07;-4.00;1.00
6270;DHT22;3168;51.684;6.954;2023-02-08T05:02:33;-3.90;1.00
6270;DHT22;3168;51.684;6.954;2023-02-08T05:04:59;-3.90;1.00
6270;DHT22;3168;51.684;6.954;2023-02-08T05:07:25;-3.90;1.00
6270;DHT22;3168;51.684;6.954;2023-02-08T05:09:51;-3.90;1.00
6270;DHT22;3168;51.684;6.954;2023-02-08T05:12:16;-3.90;1.00
6270;DHT22;3168;51.684;6.954;2023-02-08T05:14:42;-3.90;1.00
6270;DHT22;3168;51.684;6.954;2023-02-08T05:17:08;-4.00;1.00
6270;DHT22;3168;51.684;6.954;2023-02-08T05:19:34;-4.00;1.00
6270;DHT22;3168;51.684;6.954;2023-02-08T05:22:00;-4.00;1.00
6270;DHT22;3168;51.684;6.954;2023-02-08T05:24:25;-3.90;1.00
6270;DHT22;3168;51.684;6.954;2023-02-08T05:26:51;-3.90;1.00
6270;DHT22;3168;51.684;6.954;2023-02-08T05:29:17;-4.00;1.00
6270;DHT22;3168;51.684;6.954;2023-02-08T05:31:43;-4.00;1.00
6270;DHT22;3168;51.684;6.954;2023-02-08T05:34:09;-3.90;1.00
6270;DHT22;3168;51.684;6.954;2023-02-08T05:36:34;-3.90;1.00
6270;DHT22;3168;51.684;6.954;2023-02-08T05:39:00;-3.80;1.00
6270;DHT22;3168;51.684;6.954;2023-02-08T05:41:26;-3.90;1.00
6270;DHT22;3168;51.684;6.954;2023-02-08T05:43:52;-4.00;1.00
6270;DHT22;3168;51.684;6.954;2023-02-08T05:46:18;-4.00;1.00
6270;DHT22;3168;51.684;6.954;2023-02-08T05:48:43;-3.90;1.00
6270;DHT22;3168;51.684;6.954;2023-02-08T05:51:09;-4.00;1.00
6270;DHT22;3168;51.684;6.954;2023-02-08T05:53:35;-3.90;1.00
6270;DHT22;3168;51.684;6.954;2023-02-08T05:56:01;-3.90;1.00
6270;DHT22;3168;51.684;6.954;2023-02-08T05:58:26;-3.90;1.00
6270;DHT22;3168;51.684;6.954;2023-02-08T06:00:52;-3.90;1.00
6270;DHT22;3168;51.684;6.954;2023-02-08T06:03:18;-3.90;1.00
6270;DHT22;3168;51.684;6.954;2023-02-08T06:05:44;-3.90;1.00
6270;DHT22;3168;51.684;6.954;2023-02-08T06:08:10;-3.90;1.00
6270;DHT22;3168;51.684;6.954;2023-02-08T06:10:36;-4.00;1.00
6270;DHT22;3168;51.684;6.954;2023-02-08T06:13:02;-4.00;1.00
6270;DHT22;3168;51.684;6.954;2023-02-08T06:15:27;-3.90;1.00
6270;DHT22;3168;51.684;6.954;2023-02-08T06:17:53;-3.90;1.00
6270;DHT22;3168;51.684;6.954;2023-02-08T06:20:19;-3.80;1.00
6270;DHT22;3168;51.684;6.954;2023-02-08T06:22:46;-4.00;1.00
6270;DHT22;3168;51.684;6.954;2023-02-08T06:25:12;-4.00;1.00
6270;DHT22;3168;51.684;6.954;2023-02-08T06:27:38;-3.80;1.00
6270;DHT22;3168;51.684;6.954;2023-02-08T06:30:04;-3.90;1.00
6270;DHT22;3168;51.684;6.954;2023-02-08T06:32:30;-3.90;1.00
6270;DHT22;3168;51.684;6.954;2023-02-08T06:34:56;-3.90;1.00
6270;DHT22;3168;51.684;6.954;2023-02-08T06:37:22;-3.80;1.00
6270;DHT22;3168;51.684;6.954;2023-02-08T06:39:48;-3.80;1.00
6270;DHT22;3168;51.684;6.954;2023-02-08T06:42:14;-3.80;1.00
6270;DHT22;3168;51.684;6.954;2023-02-08T06:44:41;-3.90;1.00
6270;DHT22;3168;51.684;6.954;2023-02-08T06:47:06;-3.90;1.00
6270;DHT22;3168;51.684;6.954;2023-02-08T06:49:32;-3.90;1.00
6270;DHT22;3168;51.684;6.954;2023-02-08T06:51:58;-4.00;1.00
6270;DHT22;3168;51.684;6.954;2023-02-08T06:54:24;-4.00;1.00
6270;DHT22;3168;51.684;6.954;2023-02-08T06:56:50;-4.00;1.00
6270;DHT22;3168;51.684;6.954;2023-02-08T06:59:15;-3.90;1.00
6270;DHT22;3168;51.684;6.954;2023-02-08T07:01:41;-3.90;1.00
6270;DHT22;3168;51.684;6.954;2023-02-08T07:04:07;-4.00;1.00
6270;DHT22;3168;51.684;6.954;2023-02-08T07:06:33;-3.90;1.00
6270;DHT22;3168;51.684;6.954;2023-02-08T07:08:59;-3.90;1.00
6270;DHT22;3168;51.684;6.954;2023-02-08T07:11:25;-3.90;1.00
6270;DHT22;3168;51.684;6.954;2023-02-08T07:13:50;-3.80;1.00
6270;DHT22;3168;51.684;6.954;2023-02-08T07:16:17;-3.90;1.00
6270;DHT22;3168;51.684;6.954;2023-02-08T07:18:42;-3.90;1.00
6270;DHT22;3168;51.684;6.954;2023-02-08T07:21:08;-3.90;1.00
6270;DHT22;3168;51.684;6.954;2023-02-08T07:23:34;-3.90;1.00
6270;DHT22;3168;51.684;6.954;2023-02-08T07:26:01;-3.90;1.00
6270;DHT22;3168;51.684;6.954;2023-02-08T07:28:26;-3.80;1.00
6270;DHT22;3168;51.684;6.954;2023-02-08T07:30:52;-3.80;1.00
6270;DHT22;3168;51.684;6.954;2023-02-08T07:33:18;-3.70;1.00
6270;DHT22;3168;51.684;6.954;2023-02-08T07:35:45;-3.70;1.00
6270;DHT22;3168;51.684;6.954;2023-02-08T07:38:11;-3.70;1.00
6270;DHT22;3168;51.684;6.954;2023-02-08T07:40:36;-3.60;1.00
6270;DHT22;3168;51.684;6.954;2023-02-08T07:43:02;-3.60;1.00
6270;DHT22;3168;51.684;6.954;2023-02-08T07:45:28;-3.50;1.00
6270;DHT22;3168;51.684;6.954;2023-02-08T07:47:54;-3.50;1.00
6270;DHT22;3168;51.684;6.954;2023-02-08T07:50:20;-3.50;1.00
6270;DHT22;3168;51.684;6.954;2023-02-08T07:52:46;-3.40;1.00
6270;DHT22;3168;51.684;6.954;2023-02-08T07:55:13;-3.40;1.00
6270;DHT22;3168;51.684;6.954;2023-02-08T07:57:38;-3.40;1.00
6270;DHT22;3168;51.684;6.954;2023-02-08T08:00:04;-3.30;1.00
6270;DHT22;3168;51.684;6.954;2023-02-08T08:02:30;-3.30;1.00
6270;DHT22;3168;51.684;6.954;2023-02-08T08:04:56;-3.20;1.00
6270;DHT22;3168;51.684;6.954;2023-02-08T08:07:22;-3.20;1.00
6270;DHT22;3168;51.684;6.954;2023-02-08T08:09:48;-3.00;1.00
6270;DHT22;3168;51.684;6.954;2023-02-08T08:12:14;-2.80;1.00
6270;DHT22;3168;51.684;6.954;2023-02-08T08:14:39;-2.90;1.00
6270;DHT22;3168;51.684;6.954;2023-02-08T08:17:05;-2.80;1.00
6270;DHT22;3168;51.684;6.954;2023-02-08T08:19:31;-2.70;1.00
6270;DHT22;3168;51.684;6.954;2023-02-08T08:21:57;-2.60;1.00
6270;DHT22;3168;51.684;6.954;2023-02-08T08:24:23;-2.60;1.00
6270;DHT22;3168;51.684;6.954;2023-02-08T08:26:49;-2.50;1.00
6270;DHT22;3168;51.684;6.954;2023-02-08T08:29:14;-2.40;1.00
6270;DHT22;3168;51.684;6.954;2023-02-08T08:31:41;-2.30;1.00
6270;DHT22;3168;51.684;6.954;2023-02-08T08:34:06;-2.20;1.00
6270;DHT22;3168;51.684;6.954;2023-02-08T08:36:32;-2.00;1.00
6270;DHT22;3168;51.684;6.954;2023-02-08T08:38:58;-2.00;1.00
6270;DHT22;3168;51.684;6.954;2023-02-08T08:41:23;-1.90;1.00
6270;DHT22;3168;51.684;6.954;2023-02-08T08:43:50;-1.90;1.00
6270;DHT22;3168;51.684;6.954;2023-02-08T08:46:15;-1.80;1.00
6270;DHT22;3168;51.684;6.954;2023-02-08T08:48:41;-1.70;1.00
6270;DHT22;3168;51.684;6.954;2023-02-08T08:51:07;-1.60;1.00
6270;DHT22;3168;51.684;6.954;2023-02-08T08:53:33;-1.50;1.00
6270;DHT22;3168;51.684;6.954;2023-02-08T08:55:59;-1.50;1.00
6270;DHT22;3168;51.684;6.954;2023-02-08T08:58:24;-1.30;1.00
6270;DHT22;3168;51.684;6.954;2023-02-08T09:00:50;-1.20;1.00
6270;DHT22;3168;51.684;6.954;2023-02-08T09:03:17;-1.10;1.00
6270;DHT22;3168;51.684;6.954;2023-02-08T09:05:43;-1.10;1.00
6270;DHT22;3168;51.684;6.954;2023-02-08T09:08:08;-1.00;1.00
6270;DHT22;3168;51.684;6.954;2023-02-08T09:10:34;-0.90;1.00
6270;DHT22;3168;51.684;6.954;2023-02-08T09:13:00;-0.70;1.00
6270;DHT22;3168;51.684;6.954;2023-02-08T09:15:26;-0.60;1.00
6270;DHT22;3168;51.684;6.954;2023-02-08T09:17:52;-0.50;1.00
6270;DHT22;3168;51.684;6.954;2023-02-08T09:20:18;-0.40;1.00
6270;DHT22;3168;51.684;6.954;2023-02-08T09:22:44;-0.30;1.00
6270;DHT22;3168;51.684;6.954;2023-02-08T09:25:10;-0.20;1.00
6270;DHT22;3168;51.684;6.954;2023-02-08T09:27:36;-0.10;1.00
6270;DHT22;3168;51.684;6.954;2023-02-08T09:30:02;0.00;1.00
6270;DHT22;3168;51.684;6.954;2023-02-08T09:32:30;0.10;1.00
6270;DHT22;3168;51.684;6.954;2023-02-08T09:34:53;0.30;1.00
6270;DHT22;3168;51.684;6.954;2023-02-08T09:37:19;0.40;1.00
6270;DHT22;3168;51.684;6.954;2023-02-08T09:39:45;0.40;1.00
6270;DHT22;3168;51.684;6.954;2023-02-08T09:42:16;0.50;1.00
6270;DHT22;3168;51.684;6.954;2023-02-08T09:47:47;0.70;1.00
6270;DHT22;3168;51.684;6.954;2023-02-08T09:50:19;0.80;1.00
6270;DHT22;3168;51.684;6.954;2023-02-08T09:52:47;1.00;1.00
6270;DHT22;3168;51.684;6.954;2023-02-08T09:55:47;1.00;1.00
6270;DHT22;3168;51.684;6.954;2023-02-08T09:57:55;1.10;1.00
6270;DHT22;3168;51.684;6.954;2023-02-08T10:00:23;1.30;1.00
6270;DHT22;3168;51.684;6.954;2023-02-08T10:02:46;1.40;1.00
6270;DHT22;3168;51.684;6.954;2023-02-08T10:05:13;1.50;1.00
6270;DHT22;3168;51.684;6.954;2023-02-08T10:07:38;1.60;1.00
6270;DHT22;3168;51.684;6.954;2023-02-08T10:10:06;1.70;1.00
6270;DHT22;3168;51.684;6.954;2023-02-08T10:15:13;2.00;1.00
6270;DHT22;3168;51.684;6.954;2023-02-08T10:17:45;2.10;1.00
6270;DHT22;3168;51.684;6.954;2023-02-08T10:20:27;2.10;1.00
6270;DHT22;3168;51.684;6.954;2023-02-08T10:23:16;2.10;1.00
6270;DHT22;3168;51.684;6.954;2023-02-08T10:25:45;2.30;1.00
6270;DHT22;3168;51.684;6.954;2023-02-08T10:30:54;2.50;1.00
6270;DHT22;3168;51.684;6.954;2023-02-08T10:33:31;2.70;1.00
6270;DHT22;3168;51.684;6.954;2023-02-08T10:35:59;2.90;1.00
6270;DHT22;3168;51.684;6.954;2023-02-08T10:38:26;2.90;1.00
6270;DHT22;3168;51.684;6.954;2023-02-08T10:40:54;2.90;1.00
6270;DHT22;3168;51.684;6.954;2023-02-08T10:43:23;3.00;1.00
6270;DHT22;3168;51.684;6.954;2023-02-08T10:45:53;3.10;1.00
6270;DHT22;3168;51.684;6.954;2023-02-08T10:48:25;3.10;1.00
6270;DHT22;3168;51.684;6.954;2023-02-08T10:50:46;3.20;1.00
6270;DHT22;3168;51.684;6.954;2023-02-08T10:53:14;3.20;1.00
6270;DHT22;3168;51.684;6.954;2023-02-08T10:55:39;3.30;1.00
6270;DHT22;3168;51.684;6.954;2023-02-08T10:58:05;3.50;1.00
6270;DHT22;3168;51.684;6.954;2023-02-08T11:00:33;3.60;1.00
6270;DHT22;3168;51.684;6.954;2023-02-08T11:03:01;3.70;1.00
6270;DHT22;3168;51.684;6.954;2023-02-08T11:05:33;3.70;1.00
6270;DHT22;3168;51.684;6.954;2023-02-08T11:08:07;3.70;1.00
6270;DHT22;3168;51.684;6.954;2023-02-08T11:10:32;3.90;1.00
6270;DHT22;3168;51.684;6.954;2023-02-08T11:13:01;3.90;1.00
6270;DHT22;3168;51.684;6.954;2023-02-08T11:15:42;4.10;1.00
6270;DHT22;3168;51.684;6.954;2023-02-08T11:18:12;4.10;1.00
6270;DHT22;3168;51.684;6.954;2023-02-08T11:20:35;4.20;1.00
6270;DHT22;3168;51.684;6.954;2023-02-08T11:22:59;4.20;1.00
6270;DHT22;3168;51.684;6.954;2023-02-08T11:25:33;4.30;1.00
6270;DHT22;3168;51.684;6.954;2023-02-08T11:27:57;4.40;1.00
6270;DHT22;3168;51.684;6.954;2023-02-08T11:30:23;4.50;1.00
6270;DHT22;3168;51.684;6.954;2023-02-08T11:33:11;4.50;1.00
6270;DHT22;3168;51.684;6.954;2023-02-08T11:35:21;4.50;1.00
6270;DHT22;3168;51.684;6.954;2023-02-08T11:37:51;4.60;1.00
6270;DHT22;3168;51.684;6.954;2023-02-08T11:40:18;4.60;1.00
6270;DHT22;3168;51.684;6.954;2023-02-08T11:42:42;4.80;1.00
6270;DHT22;3168;51.684;6.954;2023-02-08T11:45:16;4.70;1.00
6270;DHT22;3168;51.684;6.954;2023-02-08T11:47:36;4.90;1.00
6270;DHT22;3168;51.684;6.954;2023-02-08T11:50:03;5.10;1.00
6270;DHT22;3168;51.684;6.954;2023-02-08T11:52:29;5.10;1.00
6270;DHT22;3168;51.684;6.954;2023-02-08T11:54:54;5.10;1.00
6270;DHT22;3168;51.684;6.954;2023-02-08T11:57:21;5.10;1.00
6270;DHT22;3168;51.684;6.954;2023-02-08T11:59:46;5.10;1.00
6270;DHT22;3168;51.684;6.954;2023-02-08T12:02:25;5.10;1.00
6270;DHT22;3168;51.684;6.954;2023-02-08T12:04:48;5.10;1.00
6270;DHT22;3168;51.684;6.954;2023-02-08T12:07:26;5.20;1.00
6270;DHT22;3168;51.684;6.954;2023-02-08T12:10:15;5.30;1.00
6270;DHT22;3168;51.684;6.954;2023-02-08T12:18:17;5.50;1.00
6270;DHT22;3168;51.684;6.954;2023-02-08T12:20:41;5.50;1.00
6270;DHT22;3168;51.684;6.954;2023-02-08T12:23:16;5.50;1.00
6270;DHT22;3168;51.684;6.954;2023-02-08T12:25:49;5.60;1.00
6270;DHT22;3168;51.684;6.954;2023-02-08T12:28:32;5.70;1.00
6270;DHT22;3168;51.684;6.954;2023-02-08T12:33:57;5.70;1.00
6270;DHT22;3168;51.684;6.954;2023-02-08T12:36:30;5.70;1.00
6270;DHT22;3168;51.684;6.954;2023-02-08T12:39:14;5.60;1.00
6270;DHT22;3168;51.684;6.954;2023-02-08T12:41:52;5.60;1.00
6270;DHT22;3168;51.684;6.954;2023-02-08T12:44:18;5.70;1.00
6270;DHT22;3168;51.684;6.954;2023-02-08T12:49:37;5.90;1.00
6270;DHT22;3168;51.684;6.954;2023-02-08T12:54:45;5.90;1.00
6270;DHT22;3168;51.684;6.954;2023-02-08T12:57:10;6.00;1.00
6270;DHT22;3168;51.684;6.954;2023-02-08T12:59:39;6.00;1.00
6270;DHT22;3168;51.684;6.954;2023-02-08T13:02:22;5.90;1.00
6270;DHT22;3168;51.684;6.954;2023-02-08T13:04:48;6.00;1.00
6270;DHT22;3168;51.684;6.954;2023-02-08T13:07:18;6.00;1.00
6270;DHT22;3168;51.684;6.954;2023-02-08T13:09:43;6.10;1.00
6270;DHT22;3168;51.684;6.954;2023-02-08T13:12:12;6.10;1.00
6270;DHT22;3168;51.684;6.954;2023-02-08T13:14:56;6.10;1.00
6270;DHT22;3168;51.684;6.954;2023-02-08T13:17:22;6.10;1.00
6270;DHT22;3168;51.684;6.954;2023-02-08T13:19:52;6.20;1.00
6270;DHT22;3168;51.684;6.954;2023-02-08T13:22:16;6.20;1.00
6270;DHT22;3168;51.684;6.954;2023-02-08T13:24:42;6.20;1.00
6270;DHT22;3168;51.684;6.954;2023-02-08T13:27:14;6.20;1.00
6270;DHT22;3168;51.684;6.954;2023-02-08T13:29:39;6.20;1.00
6270;DHT22;3168;51.684;6.954;2023-02-08T13:32:09;6.20;1.00
6270;DHT22;3168;51.684;6.954;2023-02-08T13:34:36;6.20;1.00
6270;DHT22;3168;51.684;6.954;2023-02-08T13:37:02;6.20;1.00
6270;DHT22;3168;51.684;6.954;2023-02-08T13:41:59;6.20;1.00
6270;DHT22;3168;51.684;6.954;2023-02-08T13:44:28;6.30;1.00
6270;DHT22;3168;51.684;6.954;2023-02-08T13:46:53;6.20;1.00
6270;DHT22;3168;51.684;6.954;2023-02-08T13:51:57;6.10;1.00
6270;DHT22;3168;51.684;6.954;2023-02-08T13:54:23;6.20;1.00
6270;DHT22;3168;51.684;6.954;2023-02-08T13:56:51;6.10;1.00
6270;DHT22;3168;51.684;6.954;2023-02-08T13:59:31;6.10;1.00
6270;DHT22;3168;51.684;6.954;2023-02-08T14:02:33;6.30;1.00
6270;DHT22;3168;51.684;6.954;2023-02-08T14:04:45;6.20;1.00
6270;DHT22;3168;51.684;6.954;2023-02-08T14:07:20;6.20;1.00
6270;DHT22;3168;51.684;6.954;2023-02-08T14:10:06;6.30;1.00
6270;DHT22;3168;51.684;6.954;2023-02-08T14:12:44;6.20;1.00
6270;DHT22;3168;51.684;6.954;2023-02-08T14:15:28;6.20;1.00
6270;DHT22;3168;51.684;6.954;2023-02-08T14:17:53;6.20;1.00
6270;DHT22;3168;51.684;6.954;2023-02-08T14:20:20;6.20;1.00
6270;DHT22;3168;51.684;6.954;2023-02-08T14:22:50;6.20;1.00
6270;DHT22;3168;51.684;6.954;2023-02-08T14:25:17;6.20;1.00
6270;DHT22;3168;51.684;6.954;2023-02-08T14:27:53;6.10;1.00
6270;DHT22;3168;51.684;6.954;2023-02-08T14:30:23;6.10;1.00
6270;DHT22;3168;51.684;6.954;2023-02-08T14:32:51;6.10;1.00
6270;DHT22;3168;51.684;6.954;2023-02-08T14:35:18;6.10;1.00
6270;DHT22;3168;51.684;6.954;2023-02-08T14:37:43;6.10;1.00
6270;DHT22;3168;51.684;6.954;2023-02-08T14:40:30;6.00;1.00
6270;DHT22;3168;51.684;6.954;2023-02-08T14:43:01;6.00;1.00
6270;DHT22;3168;51.684;6.954;2023-02-08T14:45:34;6.10;1.00
6270;DHT22;3168;51.684;6.954;2023-02-08T14:48:01;6.10;1.00
6270;DHT22;3168;51.684;6.954;2023-02-08T14:50:27;6.00;1.00
6270;DHT22;3168;51.684;6.954;2023-02-08T14:52:57;6.00;1.00
6270;DHT22;3168;51.684;6.954;2023-02-08T14:55:23;6.00;1.00
6270;DHT22;3168;51.684;6.954;2023-02-08T14:57:48;6.00;1.00
6270;DHT22;3168;51.684;6.954;2023-02-08T15:00:18;5.90;1.00
6270;DHT22;3168;51.684;6.954;2023-02-08T15:02:43;5.90;1.00
6270;DHT22;3168;51.684;6.954;2023-02-08T15:05:17;6.00;1.00
6270;DHT22;3168;51.684;6.954;2023-02-08T15:07:36;6.10;1.00
6270;DHT22;3168;51.684;6.954;2023-02-08T15:10:01;6.10;1.00
6270;DHT22;3168;51.684;6.954;2023-02-08T15:12:27;6.00;1.00
6270;DHT22;3168;51.684;6.954;2023-02-08T15:14:53;6.00;1.00
6270;DHT22;3168;51.684;6.954;2023-02-08T15:17:23;6.00;1.00
6270;DHT22;3168;51.684;6.954;2023-02-08T15:19:45;6.00;1.00
6270;DHT22;3168;51.684;6.954;2023-02-08T15:22:30;5.90;1.00
6270;DHT22;3168;51.684;6.954;2023-02-08T15:24:57;5.90;1.00
6270;DHT22;3168;51.684;6.954;2023-02-08T15:27:23;5.80;1.00
6270;DHT22;3168;51.684;6.954;2023-02-08T15:29:48;5.70;1.00
6270;DHT22;3168;51.684;6.954;2023-02-08T15:32:15;5.70;1.00
6270;DHT22;3168;51.684;6.954;2023-02-08T15:34:41;5.70;1.00
6270;DHT22;3168;51.684;6.954;2023-02-08T15:37:11;5.60;1.00
6270;DHT22;3168;51.684;6.954;2023-02-08T15:39:33;5.50;1.00
6270;DHT22;3168;51.684;6.954;2023-02-08T15:41:58;5.60;1.00
6270;DHT22;3168;51.684;6.954;2023-02-08T15:44:25;5.60;1.00
6270;DHT22;3168;51.684;6.954;2023-02-08T15:46:50;5.60;1.00
6270;DHT22;3168;51.684;6.954;2023-02-08T15:49:21;5.50;1.00
6270;DHT22;3168;51.684;6.954;2023-02-08T15:51:44;5.50;1.00
6270;DHT22;3168;51.684;6.954;2023-02-08T15:54:13;5.50;1.00
6270;DHT22;3168;51.684;6.954;2023-02-08T15:56:36;5.30;1.00
6270;DHT22;3168;51.684;6.954;2023-02-08T15:59:02;5.20;1.00
6270;DHT22;3168;51.684;6.954;2023-02-08T16:01:27;5.10;1.00
6270;DHT22;3168;51.684;6.954;2023-02-08T16:03:55;4.90;1.00
6270;DHT22;3168;51.684;6.954;2023-02-08T16:06:22;4.70;1.00
6270;DHT22;3168;51.684;6.954;2023-02-08T16:08:48;4.60;1.00
6270;DHT22;3168;51.684;6.954;2023-02-08T16:11:14;4.70;1.00
6270;DHT22;3168;51.684;6.954;2023-02-08T16:13:39;4.60;1.00
6270;DHT22;3168;51.684;6.954;2023-02-08T16:16:18;4.50;1.00
6270;DHT22;3168;51.684;6.954;2023-02-08T16:18:44;4.60;1.00
6270;DHT22;3168;51.684;6.954;2023-02-08T16:21:18;4.50;1.00
6270;DHT22;3168;51.684;6.954;2023-02-08T16:23:47;4.40;1.00
6270;DHT22;3168;51.684;6.954;2023-02-08T16:26:10;4.30;1.00
6270;DHT22;3168;51.684;6.954;2023-02-08T16:28:35;4.20;1.00
6270;DHT22;3168;51.684;6.954;2023-02-08T16:31:01;4.00;1.00
6270;DHT22;3168;51.684;6.954;2023-02-08T16:33:26;3.90;1.00
6270;DHT22;3168;51.684;6.954;2023-02-08T16:35:52;3.70;1.00
6270;DHT22;3168;51.684;6.954;2023-02-08T16:38:19;3.60;1.00
6270;DHT22;3168;51.684;6.954;2023-02-08T16:40:47;3.50;1.00
6270;DHT22;3168;51.684;6.954;2023-02-08T16:43:27;3.40;1.00
6270;DHT22;3168;51.684;6.954;2023-02-08T16:48:32;3.20;1.00
6270;DHT22;3168;51.684;6.954;2023-02-08T16:50:58;3.10;1.00
6270;DHT22;3168;51.684;6.954;2023-02-08T16:53:23;2.90;1.00
6270;DHT22;3168;51.684;6.954;2023-02-08T16:55:49;2.80;1.00
6270;DHT22;3168;51.684;6.954;2023-02-08T16:58:15;2.60;1.00
6270;DHT22;3168;51.684;6.954;2023-02-08T17:00:40;2.60;1.00
6270;DHT22;3168;51.684;6.954;2023-02-08T17:03:06;2.60;1.00
6270;DHT22;3168;51.684;6.954;2023-02-08T17:05:35;2.40;1.00
6270;DHT22;3168;51.684;6.954;2023-02-08T17:08:00;2.30;1.00
6270;DHT22;3168;51.684;6.954;2023-02-08T17:10:28;2.10;1.00
6270;DHT22;3168;51.684;6.954;2023-02-08T17:12:53;2.00;1.00
6270;DHT22;3168;51.684;6.954;2023-02-08T17:15:19;2.10;1.00
6270;DHT22;3168;51.684;6.954;2023-02-08T17:17:46;2.00;1.00